Time;durP1;ratioP1;P1;durP2;ratioP2;P2;SDS_P1;SDS_P2;PMS_P1;PMS_P2;Temp;Humidity;BMP_temperature;BMP_pressure;BME280_temperature;BME280_humidity;BME280_pressure;Samples;Min_cycle;Max_cycle;Signal;HPM_P1;HPM_P2
2021/11/14 00:04:14;;;;;;;75.87;31.75;;;;;;;4.20;100.00;99410.66;4290936;82;28497;-82
2021/11/14 00:10:15;;;;;;;75.37;31.52;;;;;;;4.25;100.00;99407.45;4284659;82;28492;-83
2021/11/14 00:16:20;;;;;;;75.83;31.25;;;;;;;4.38;100.00;99404.17;4310587;82;28439;-82
2021/11/14 00:22:23;;;;;;;72.22;30.68;;;;;;;4.45;100.00;99402.42;4316190;82;28531;-86
2021/11/14 00:28:25;;;;;;;75.12;30.97;;;;;;;4.48;100.00;99411.39;4303069;82;28495;-83
2021/11/14 00:34:29;;;;;;;65.20;28.00;;;;;;;4.53;100.00;99409.00;4242580;82;28521;-84
2021/11/14 00:40:34;;;;;;;68.47;28.05;;;;;;;4.51;100.00;99407.03;4260269;80;28548;-84
2021/11/14 00:46:36;;;;;;;64.62;26.65;;;;;;;4.60;100.00;99407.27;4264246;82;28528;-85
2021/11/14 00:52:41;;;;;;;69.55;28.65;;;;;;;4.64;100.00;99409.06;4287352;82;28489;-85
2021/11/14 00:58:42;;;;;;;72.85;30.20;;;;;;;4.71;100.00;99399.83;4244419;84;28527;-83
2021/11/14 01:04:43;;;;;;;68.35;29.42;;;;;;;4.73;100.00;99413.78;4246632;82;28445;-84
2021/11/14 01:10:49;;;;;;;61.85;26.07;;;;;;;4.66;100.00;99408.38;4318410;82;28493;-85
2021/11/14 01:16:51;;;;;;;59.73;25.92;;;;;;;4.60;100.00;99409.09;4318408;82;28502;-83
2021/11/14 01:22:54;;;;;;;58.38;25.12;;;;;;;4.60;100.00;99407.76;4284289;82;28447;-83
2021/11/14 01:28:56;;;;;;;62.35;27.77;;;;;;;4.67;100.00;99415.84;4242610;81;28507;-84
2021/11/14 01:34:57;;;;;;;64.25;27.65;;;;;;;4.82;100.00;99420.68;4242537;83;28541;-85
2021/11/14 01:41:07;;;;;;;63.55;28.12;;;;;;;4.75;100.00;99411.77;4226109;81;28440;-83
2021/11/14 01:47:08;;;;;;;61.00;27.07;;;;;;;4.71;100.00;99417.95;4226319;84;28464;-83
2021/11/14 01:53:10;;;;;;;63.75;27.77;;;;;;;4.70;100.00;99411.50;4224139;83;28495;-83
2021/11/14 01:59:12;;;;;;;57.95;25.20;;;;;;;4.64;100.00;99417.05;4244462;83;28596;-83
2021/11/14 02:05:14;;;;;;;61.60;26.82;;;;;;;4.71;100.00;99411.30;4245047;83;28451;-81
2021/11/14 02:11:16;;;;;;;71.20;29.20;;;;;;;4.76;100.00;99413.94;4225766;83;28514;-82
2021/11/14 02:17:18;;;;;;;71.37;29.70;;;;;;;4.82;100.00;99427.83;4224636;83;28526;-83
2021/11/14 02:23:22;;;;;;;63.95;27.93;;;;;;;4.71;100.00;99423.28;4223976;83;28527;-83
2021/11/14 02:29:24;;;;;;;60.65;26.70;;;;;;;4.69;100.00;99427.97;4207126;82;28455;-83
2021/11/14 02:35:27;;;;;;;62.08;27.52;;;;;;;4.76;100.00;99429.92;4223396;83;28470;-84
2021/11/14 02:41:29;;;;;;;61.20;27.25;;;;;;;4.81;100.00;99424.84;4230407;82;28494;-84
2021/11/14 02:47:30;;;;;;;63.60;28.67;;;;;;;4.82;100.00;99430.50;4257973;83;28503;-82
2021/11/14 02:53:31;;;;;;;68.40;29.52;;;;;;;4.84;100.00;99434.64;4274245;82;28507;-85
2021/11/14 02:59:33;;;;;;;62.27;27.82;;;;;;;4.81;100.00;99438.17;4251978;84;28505;-83
2021/11/14 03:05:37;;;;;;;57.58;26.55;;;;;;;4.81;100.00;99431.51;4317751;82;28488;-83
2021/11/14 03:11:39;;;;;;;62.17;28.07;;;;;;;4.84;100.00;99439.97;4309158;82;28560;-83
2021/11/14 03:17:40;;;;;;;65.62;28.47;;;;;;;4.88;100.00;99441.77;4319406;82;28522;-83
2021/11/14 03:23:41;;;;;;;64.22;28.15;;;;;;;4.88;100.00;99441.24;4327021;82;28493;-83
2021/11/14 03:29:44;;;;;;;60.95;26.40;;;;;;;4.81;100.00;99451.48;4264397;82;28523;-83
2021/11/14 03:35:58;;;;;;;54.23;24.82;;;;;;;4.89;100.00;99444.75;4249094;82;28480;-83
2021/11/14 03:41:59;;;;;;;58.92;26.70;;;;;;;4.84;100.00;99445.30;4246843;83;28480;-83
2021/11/14 03:48:01;;;;;;;64.80;27.48;;;;;;;4.91;100.00;99448.05;4246998;83;28492;-84
2021/11/14 03:54:02;;;;;;;62.65;28.62;;;;;;;4.97;100.00;99456.65;4254146;83;28467;-83
2021/11/14 04:00:19;;;;;;;58.55;27.22;;;;;;;4.98;100.00;99452.97;4261281;83;28452;-83
2021/11/14 04:06:22;;;;;;;;;;;;;;;4.87;100.00;99452.10;4354686;81;28490;-84
2021/11/14 04:12:23;;;;;;;53.25;24.92;;;;;;;4.76;100.00;99461.36;4356563;81;20194;-84
2021/11/14 04:18:25;;;;;;;61.63;25.75;;;;;;;4.74;100.00;99460.72;4366426;81;28490;-83
2021/11/14 04:24:27;;;;;;;55.23;25.82;;;;;;;4.77;100.00;99463.53;4378936;81;28468;-84
2021/11/14 04:30:29;;;;;;;61.13;26.85;;;;;;;4.72;100.00;99467.55;4389190;81;28441;-83
2021/11/14 04:36:30;;;;;;;65.25;28.27;;;;;;;4.71;100.00;99476.56;4318114;82;28465;-83
2021/11/14 04:42:32;;;;;;;53.75;23.80;;;;;;;4.62;100.00;99487.48;4277962;82;28513;-85
2021/11/14 04:48:33;;;;;;;54.83;24.30;;;;;;;4.60;100.00;99488.50;4278754;82;28503;-84
2021/11/14 04:54:35;;;;;;;58.60;25.37;;;;;;;4.67;100.00;99487.27;4278255;82;28430;-84
2021/11/14 05:00:51;;;;;;;63.98;28.50;;;;;;;4.65;100.00;99500.44;4273938;82;28514;-83
2021/11/14 05:06:52;;;;;;;63.80;27.77;;;;;;;4.62;100.00;99506.94;4298546;82;28451;-83
2021/11/14 05:12:53;;;;;;;61.33;26.77;;;;;;;4.53;100.00;99513.34;4318185;82;28471;-83
2021/11/14 05:18:55;;;;;;;59.25;25.97;;;;;;;4.52;100.00;99513.87;4284168;82;28449;-83
2021/11/14 05:24:56;;;;;;;59.83;25.68;;;;;;;4.52;100.00;99513.02;4264302;82;28561;-83
2021/11/14 05:31:00;;;;;;;63.92;28.02;;;;;;;4.64;100.00;99519.59;4259305;83;28453;-83
2021/11/14 05:37:01;;;;;;;62.93;28.30;;;;;;;4.63;100.00;99523.24;4290477;81;28509;-83
2021/11/14 05:43:03;;;;;;;71.20;28.98;;;;;;;4.64;100.00;99532.07;4271258;82;28482;-83
2021/11/14 05:49:09;;;;;;;62.88;26.90;;;;;;;4.63;100.00;99539.74;4228698;84;28508;-82
2021/11/14 05:55:09;;;;;;;62.95;26.60;;;;;;;4.71;100.00;99541.02;4226407;83;28498;-82
2021/11/14 06:01:24;;;;;;;60.63;26.50;;;;;;;4.73;100.00;99543.80;4284393;82;28566;-83
2021/11/14 06:07:20;;;;;;;66.97;29.52;;;;;;;4.85;100.00;99546.86;4267729;82;28523;-84
2021/11/14 06:13:25;;;;;;;65.47;28.40;;;;;;;4.88;100.00;99561.66;4222748;83;28508;-84
2021/11/14 06:19:26;;;;;;;64.72;28.20;;;;;;;4.91;100.00;99571.95;4219049;83;28478;-83
2021/11/14 06:25:28;;;;;;;67.58;27.13;;;;;;;4.96;100.00;99581.58;4245502;82;28467;-83
2021/11/14 06:31:29;;;;;;;63.17;27.22;;;;;;;5.03;100.00;99595.00;4202696;85;28533;-83
2021/11/14 06:37:32;;;;;;;71.25;28.65;;;;;;;5.07;100.00;99596.28;4216434;83;28483;-85
2021/11/14 06:43:34;;;;;;;69.95;30.35;;;;;;;5.25;100.00;99607.13;4214212;83;28539;-83
2021/11/14 06:49:35;;;;;;;73.15;29.65;;;;;;;5.20;100.00;99610.33;4255078;83;28517;-82
2021/11/14 06:55:36;;;;;;;67.78;28.02;;;;;;;5.32;100.00;99616.55;4391012;81;28471;-83
2021/11/14 07:01:38;;;;;;;70.87;26.27;;;;;;;5.35;100.00;99625.02;4346540;81;28506;-82
2021/11/14 07:07:40;;;;;;;73.70;28.20;;;;;;;5.44;100.00;99629.75;4361541;79;28862;-83
2021/11/14 07:13:41;;;;;;;74.30;28.15;;;;;;;5.57;100.00;99634.45;4284447;83;28528;-82
2021/11/14 07:19:43;;;;;;;73.35;28.50;;;;;;;5.54;100.00;99636.97;4373324;81;28490;-83
2021/11/14 07:25:45;;;;;;;74.00;29.95;;;;;;;5.51;100.00;99641.35;4342174;81;28507;-83
2021/11/14 07:31:46;;;;;;;70.10;27.60;;;;;;;5.46;100.00;99646.91;4251589;82;28545;-85
2021/11/14 07:37:48;;;;;;;79.75;30.70;;;;;;;5.63;100.00;99654.23;4327020;81;28450;-85
2021/11/14 07:43:50;;;;;;;78.65;29.27;;;;;;;5.69;100.00;99652.17;4283426;82;28480;-84
2021/11/14 07:49:51;;;;;;;74.62;29.05;;;;;;;5.70;100.00;99647.97;4265933;83;28552;-85
2021/11/14 07:55:54;;;;;;;72.00;27.67;;;;;;;5.92;100.00;99649.91;4318686;81;28478;-84
2021/11/14 08:01:56;;;;;;;67.53;27.27;;;;;;;5.87;100.00;99661.14;4341784;81;28540;-79
2021/11/14 08:07:57;;;;;;;74.50;28.12;;;;;;;5.97;100.00;99651.50;4347866;81;28458;-83
2021/11/14 08:13:59;;;;;;;76.25;30.10;;;;;;;6.16;100.00;99652.81;4337158;81;28472;-82
2021/11/14 08:20:01;;;;;;;76.55;29.10;;;;;;;6.20;100.00;99658.09;4340851;81;28498;-80
2021/11/14 08:26:03;;;;;;;75.52;28.77;;;;;;;6.31;100.00;99663.95;4357147;81;28488;-80
2021/11/14 08:32:05;;;;;;;75.85;29.57;;;;;;;6.31;100.00;99666.13;4375158;81;28452;-81
2021/11/14 08:38:07;;;;;;;83.03;31.95;;;;;;;6.37;100.00;99669.38;4346451;81;28472;-81
2021/11/14 08:44:09;;;;;;;79.20;30.85;;;;;;;6.52;100.00;99675.20;4347336;81;28539;-79
2021/11/14 08:50:12;;;;;;;73.37;30.08;;;;;;;6.63;100.00;99682.72;4326783;81;28575;-82
2021/11/14 08:56:13;;;;;;;68.60;28.42;;;;;;;6.55;100.00;99693.52;4347591;81;28544;-81
2021/11/14 09:02:16;;;;;;;69.70;30.05;;;;;;;6.66;100.00;99700.20;4361773;81;28488;-83
2021/11/14 09:08:17;;;;;;;71.42;31.52;;;;;;;6.84;100.00;99699.79;4263845;83;28479;-86
2021/11/14 09:14:21;;;;;;;76.62;32.88;;;;;;;6.88;100.00;99689.55;4275046;82;28475;-80
2021/11/14 09:20:23;;;;;;;79.10;32.93;;;;;;;6.97;100.00;99687.87;4305183;81;28530;-82
2021/11/14 09:26:24;;;;;;;78.12;33.08;;;;;;;7.08;100.00;99692.39;4312157;82;28468;-83
2021/11/14 09:32:26;;;;;;;75.72;31.25;;;;;;;7.01;100.00;99693.67;4301989;81;28440;-82
2021/11/14 09:38:27;;;;;;;72.82;29.63;;;;;;;7.08;100.00;99702.59;4333221;81;28485;-79
2021/11/14 09:44:29;;;;;;;79.77;32.15;;;;;;;7.14;100.00;99701.00;4309410;81;28427;-83
2021/11/14 09:50:31;;;;;;;79.37;33.23;;;;;;;7.10;100.00;99703.22;4366724;81;28502;-83
2021/11/14 09:56:32;;;;;;;76.05;31.37;;;;;;;7.07;100.00;99704.92;4366951;81;28482;-82
2021/11/14 10:02:34;;;;;;;71.37;30.02;;;;;;;7.15;100.00;99708.00;4375266;81;28476;-83
2021/11/14 10:08:42;;;;;;;66.65;29.05;;;;;;;7.21;100.00;99703.73;4390726;81;28597;-83
2021/11/14 10:14:48;;;;;;;69.70;30.27;;;;;;;7.39;100.00;99715.29;4316425;81;28478;-82
2021/11/14 10:20:56;;;;;;;64.92;29.42;;;;;;;6.97;100.00;99707.09;4286340;81;28494;-81
2021/11/14 10:26:56;;;;;;;72.58;31.07;;;;;;;7.03;100.00;99710.84;4332976;81;28459;-79
2021/11/14 10:33:03;;;;;;;69.50;31.07;;;;;;;7.09;100.00;99720.78;4319401;81;28454;-82
2021/11/14 10:39:10;;;;;;;66.53;28.95;;;;;;;6.75;100.00;99726.31;4310481;81;28584;-81
2021/11/14 10:45:11;;;;;;;61.28;27.48;;;;;;;7.01;100.00;99729.77;4322180;81;28542;-82
2021/11/14 10:51:13;;;;;;;65.05;29.55;;;;;;;7.06;100.00;99737.22;4317676;81;28518;-82
2021/11/14 10:57:15;;;;;;;69.30;30.37;;;;;;;7.17;100.00;99738.05;4221097;83;28506;-81
2021/11/14 11:03:16;;;;;;;68.75;29.95;;;;;;;6.87;100.00;99734.64;4322306;82;28515;-82
2021/11/14 11:09:18;;;;;;;62.20;28.32;;;;;;;7.11;100.00;99731.62;4322177;81;28514;-80
2021/11/14 11:15:20;;;;;;;57.98;26.62;;;;;;;7.16;100.00;99727.03;4288100;81;28508;-81
2021/11/14 11:21:21;;;;;;;56.45;25.68;;;;;;;7.21;100.00;99729.95;4292727;82;28458;-81
2021/11/14 11:27:29;;;;;;;65.00;29.23;;;;;;;7.06;100.00;99730.01;4276055;82;28553;-80
2021/11/14 11:33:35;;;;;;;66.55;29.40;;;;;;;7.08;100.00;99730.67;4331890;81;28444;-78
2021/11/14 11:39:43;;;;;;;67.40;29.37;;;;;;;7.36;100.00;99733.08;4340985;81;28456;-85
2021/11/14 11:45:47;;;;;;;61.48;27.65;;;;;;;7.41;100.00;99736.51;4285096;80;28554;-83
2021/11/14 11:51:54;;;;;;;54.18;25.70;;;;;;;7.44;100.00;99737.45;4315281;81;28478;-82
2021/11/14 11:58:15;;;;;;;53.90;25.32;;;;;;;7.43;100.00;99733.13;4311806;81;28500;-81
2021/11/14 12:04:45;;;;;;;60.28;28.35;;;;;;;7.44;100.00;99738.79;4261569;82;28544;-81
2021/11/14 12:10:57;;;;;;;61.15;27.70;;;;;;;7.70;100.00;99747.53;4252081;82;28573;-82
2021/11/14 12:17:03;;;;;;;68.65;29.75;;;;;;;7.34;100.00;99743.95;4333295;81;28466;-83
2021/11/14 12:23:07;;;;;;;;;;;;;;;7.46;100.00;99750.13;4336907;81;28443;-82
2021/11/14 12:29:09;;;;;;;57.23;26.75;;;;;;;7.36;100.00;99758.48;4311034;81;20159;-81
2021/11/14 12:35:20;;;;;;;60.65;26.23;;;;;;;7.39;100.00;99754.92;4354738;81;28597;-81
2021/11/14 12:41:23;;;;;;;72.10;30.43;;;;;;;7.53;100.00;99764.39;4344201;81;28474;-80
2021/11/14 12:47:46;;;;;;;67.32;29.72;;;;;;;7.47;100.00;99759.80;4204541;83;28486;-80
2021/11/14 12:53:53;;;;;;;66.82;27.80;;;;;;;7.54;100.00;99763.37;4314039;79;28503;-78
2021/11/14 12:59:56;;;;;;;66.07;27.73;;;;;;;7.38;100.00;99763.94;4248058;83;28493;-79
2021/11/14 13:06:02;;;;;;;60.25;27.00;;;;;;;7.36;100.00;99759.83;4244851;82;28456;-80
2021/11/14 13:12:08;;;;;;;;;;;;;;;7.36;100.00;99765.98;4327626;81;28486;-81
2021/11/14 13:18:09;;;;;;;60.98;26.02;;;;;;;7.45;100.00;99765.86;4356754;81;20150;-81
2021/11/14 13:24:15;;;;;;;59.33;26.85;;;;;;;7.54;100.00;99771.39;4326833;81;28500;-78
2021/11/14 13:30:17;;;;;;;57.17;25.07;;;;;;;7.46;100.00;99772.37;4313256;81;28500;-82
2021/11/14 13:36:19;;;;;;;55.33;25.02;;;;;;;7.46;100.00;99770.19;4334918;81;28510;-88
2021/11/14 13:42:35;;;;;;;54.40;25.55;;;;;;;7.25;100.00;99785.23;4318777;81;28500;-87
2021/11/14 13:48:36;;;;;;;52.73;23.27;;;;;;;7.25;100.00;99785.23;4357165;81;28500;-91
2021/11/14 13:54:58;;;;;;;49.38;22.40;;;;;;;7.06;100.00;99792.03;4309737;80;28512;-89
2021/11/14 14:01:03;;;;;;;54.48;25.25;;;;;;;7.20;100.00;99796.50;4287580;82;28565;-88
2021/11/14 14:07:05;;;;;;;56.65;25.37;;;;;;;7.21;100.00;99806.17;4329676;81;28459;-88
2021/11/14 14:13:06;;;;;;;55.03;24.82;;;;;;;7.18;100.00;99810.58;4316238;81;28471;-88
2021/11/14 14:19:07;;;;;;;58.10;26.33;;;;;;;7.20;100.00;99817.08;4316511;81;28463;-86
2021/11/14 14:25:12;;;;;;;54.83;23.92;;;;;;;7.11;100.00;99821.20;4321485;81;28541;-87
2021/11/14 14:31:19;;;;;;;54.70;24.27;;;;;;;6.94;100.00;99832.64;4316143;81;28443;-84
2021/11/14 14:37:21;;;;;;;55.15;25.23;;;;;;;6.91;100.00;99829.50;4329988;81;28454;-83
2021/11/14 14:43:27;;;;;;;54.95;24.32;;;;;;;6.80;100.00;99832.98;4326200;81;28506;-87
2021/11/14 14:49:31;;;;;;;53.85;24.25;;;;;;;6.86;100.00;99843.92;4313950;81;28488;-79
2021/11/14 14:55:33;;;;;;;55.30;23.55;;;;;;;6.74;100.00;99848.94;4304009;81;28502;-84
2021/11/14 15:01:41;;;;;;;46.33;20.70;;;;;;;6.50;100.00;99850.37;4300523;81;28474;-84
2021/11/14 15:07:56;;;;;;;46.45;20.27;;;;;;;6.59;100.00;99852.95;4295905;81;28507;-85
2021/11/14 15:13:57;;;;;;;50.00;21.60;;;;;;;6.63;100.00;99847.55;4319035;81;28483;-88
2021/11/14 15:20:16;;;;;;;40.00;19.12;;;;;;;6.58;100.00;99854.78;4315971;81;28488;-87
2021/11/14 15:26:18;;;;;;;38.00;19.15;;;;;;;6.43;100.00;99859.31;4336431;81;28504;-87
2021/11/14 15:32:19;;;;;;;38.95;17.35;;;;;;;6.59;100.00;99875.66;4302997;82;28485;-84
2021/11/14 15:38:21;;;;;;;33.48;17.07;;;;;;;6.35;100.00;99881.56;4328233;82;28460;-85
2021/11/14 15:44:22;;;;;;;40.90;19.60;;;;;;;6.28;100.00;99898.83;4263409;82;28497;-86
2021/11/14 15:50:25;;;;;;;42.60;20.20;;;;;;;6.30;100.00;99903.52;4315169;81;28447;-86
2021/11/14 15:56:26;;;;;;;44.42;21.23;;;;;;;6.24;100.00;99913.05;4341033;81;28472;-91
2021/11/14 16:02:28;;;;;;;39.05;18.60;;;;;;;6.35;100.00;99920.30;4337666;81;28446;-88
2021/11/14 16:08:31;;;;;;;39.05;18.82;;;;;;;6.33;100.00;99928.52;4255598;83;28511;-88
2021/11/14 16:14:32;;;;;;;37.23;18.42;;;;;;;6.38;100.00;99931.98;4230632;84;28470;-90
2021/11/14 16:20:35;;;;;;;43.28;19.80;;;;;;;6.40;100.00;99933.46;4247973;82;28537;-85
2021/11/14 16:26:37;;;;;;;43.73;20.72;;;;;;;6.32;100.00;99936.20;4229028;83;28472;-87
2021/11/14 16:32:39;;;;;;;43.75;20.12;;;;;;;6.59;100.00;99946.47;4259889;81;28545;-78
2021/11/14 16:38:41;;;;;;;45.73;20.92;;;;;;;6.39;100.00;99955.81;4238236;82;28490;-77
2021/11/14 16:44:44;;;;;;;42.65;19.73;;;;;;;6.36;100.00;99964.72;4328910;81;28538;-78
2021/11/14 16:50:46;;;;;;;43.90;19.90;;;;;;;6.49;100.00;99970.27;4312984;81;28493;-78
2021/11/14 16:56:48;;;;;;;47.25;19.98;;;;;;;6.58;100.00;99974.20;4266382;82;28523;-81
2021/11/14 17:02:49;;;;;;;44.60;20.90;;;;;;;6.36;100.00;99978.89;4239966;82;28590;-80
2021/11/14 17:08:51;;;;;;;44.93;20.62;;;;;;;6.46;100.00;99976.48;4217328;83;28469;-77
2021/11/14 17:14:52;;;;;;;44.98;21.75;;;;;;;6.46;100.00;99981.81;4228782;83;28465;-78
2021/11/14 17:20:53;;;;;;;48.98;22.35;;;;;;;6.35;100.00;99988.41;4222783;83;28541;-79
2021/11/14 17:26:56;;;;;;;46.83;20.32;;;;;;;6.30;100.00;99994.81;4252411;82;28547;-78
2021/11/14 17:32:58;;;;;;;42.73;20.30;;;;;;;6.30;100.00;99999.66;4237446;83;28520;-79
2021/11/14 17:38:59;;;;;;;41.30;18.20;;;;;;;6.25;100.00;100002.87;4225866;83;28463;-78
2021/11/14 17:45:01;;;;;;;46.50;21.00;;;;;;;6.39;100.00;100003.08;4221873;83;28559;-79
2021/11/14 17:51:04;;;;;;;45.78;20.72;;;;;;;6.36;100.00;100014.14;4232660;82;28482;-79
2021/11/14 17:57:07;;;;;;;46.50;21.82;;;;;;;6.39;100.00;100021.27;4214518;83;28540;-80
2021/11/14 18:03:09;;;;;;;44.85;19.60;;;;;;;6.42;100.00;100026.76;4245018;82;28532;-80
2021/11/14 18:09:11;;;;;;;43.13;19.90;;;;;;;6.39;100.00;100030.61;4215322;83;28524;-77
2021/11/14 18:15:15;;;;;;;48.70;22.13;;;;;;;6.33;100.00;100032.68;4242907;82;28573;-79
2021/11/14 18:21:19;;;;;;;50.83;23.32;;;;;;;6.20;100.00;100031.93;4248749;82;28494;-81
2021/11/14 18:27:23;;;;;;;51.33;23.45;;;;;;;6.40;100.00;100030.97;4175524;84;28499;-82
2021/11/14 18:33:27;;;;;;;50.78;22.40;;;;;;;6.41;100.00;100036.63;4237120;82;28527;-79
2021/11/14 18:39:28;;;;;;;52.33;22.73;;;;;;;6.40;100.00;100041.65;4239956;82;28477;-78
2021/11/14 18:45:31;;;;;;;49.67;24.12;;;;;;;6.45;100.00;100049.09;4232425;83;28538;-77
2021/11/14 18:51:33;;;;;;;54.00;23.75;;;;;;;6.27;100.00;100050.25;4229488;83;28525;-78
2021/11/14 18:57:35;;;;;;;53.83;25.48;;;;;;;6.20;100.00;100055.16;4223843;83;28487;-81
2021/11/14 19:03:37;;;;;;;49.50;23.05;;;;;;;6.07;100.00;100063.73;4231748;83;28481;-77
2021/11/14 19:09:38;;;;;;;50.58;23.32;;;;;;;6.08;100.00;100062.20;4217919;83;28461;-80
2021/11/14 19:15:40;;;;;;;53.55;24.02;;;;;;;6.10;100.00;100065.55;4214513;83;28548;-77
2021/11/14 19:21:42;;;;;;;51.83;24.77;;;;;;;6.03;100.00;100065.08;4219724;83;29050;-76
2021/11/14 19:27:43;;;;;;;51.48;24.25;;;;;;;5.94;100.00;100063.78;4238258;83;28550;-78
2021/11/14 19:33:46;;;;;;;49.38;22.65;;;;;;;6.00;100.00;100064.39;4231768;83;28477;-89
2021/11/14 19:39:47;;;;;;;53.17;22.67;;;;;;;6.24;100.00;100066.61;4231800;84;28508;-88
2021/11/14 19:45:50;;;;;;;57.00;26.17;;;;;;;6.03;100.00;100077.94;4248772;83;28493;-86
2021/11/14 19:51:52;;;;;;;50.78;24.15;;;;;;;6.30;100.00;100071.77;4244993;83;28478;-90
2021/11/14 19:57:55;;;;;;;52.45;25.23;;;;;;;6.22;100.00;100086.51;4230861;82;28465;-86
2021/11/14 20:03:57;;;;;;;52.15;25.40;;;;;;;6.25;100.00;100094.16;4317900;81;28937;-81
2021/11/14 20:09:58;;;;;;;52.67;25.72;;;;;;;6.04;100.00;100089.43;4300560;81;28451;-79
2021/11/14 20:16:02;;;;;;;53.90;25.57;;;;;;;6.07;100.00;100099.78;4311606;81;28557;-83
2021/11/14 20:22:06;;;;;;;54.13;25.05;;;;;;;6.06;100.00;100096.27;4318660;81;28443;-80
2021/11/14 20:28:10;;;;;;;50.80;24.27;;;;;;;6.14;100.00;100088.22;4319916;81;28501;-84
2021/11/14 20:34:12;;;;;;;59.58;26.48;;;;;;;6.24;100.00;100083.97;4340242;81;28537;-86
2021/11/14 20:40:18;;;;;;;53.28;25.35;;;;;;;6.25;100.00;100087.48;4238904;82;28525;-87
2021/11/14 20:46:19;;;;;;;59.33;28.57;;;;;;;6.22;100.00;100102.02;4305880;82;28546;-84
2021/11/14 20:52:22;;;;;;;60.55;27.52;;;;;;;6.13;100.00;100109.73;4278269;82;28543;-88
2021/11/14 20:58:23;;;;;;;57.73;26.15;;;;;;;6.03;100.00;100111.80;4288024;82;28438;-85
2021/11/14 21:04:26;;;;;;;59.05;25.82;;;;;;;6.08;100.00;100113.45;4263973;82;28525;-85
2021/11/14 21:10:27;;;;;;;57.80;26.93;;;;;;;6.21;100.00;100111.55;4268735;82;28555;-84
2021/11/14 21:16:28;;;;;;;64.72;29.30;;;;;;;5.88;100.00;100115.67;4280383;82;28473;-85
2021/11/14 21:22:30;;;;;;;61.00;25.72;;;;;;;5.83;100.00;100122.37;4309944;82;28457;-83
2021/11/14 21:28:32;;;;;;;55.50;25.27;;;;;;;5.96;100.00;100116.48;4320601;82;28468;-86
2021/11/14 21:40:53;;;;;;;68.87;29.60;;;;;;;6.04;100.00;100117.46;4283253;82;28449;-90
2021/11/14 21:46:54;;;;;;;61.20;26.90;;;;;;;5.93;100.00;100130.68;4276284;82;28487;-88
2021/11/14 21:52:57;;;;;;;58.85;25.85;;;;;;;5.90;100.00;100137.70;4203642;84;28479;-85
2021/11/14 21:58:58;;;;;;;60.17;27.02;;;;;;;5.81;100.00;100129.73;4234428;83;28911;-85
2021/11/14 22:05:00;;;;;;;64.17;28.35;;;;;;;5.84;100.00;100133.89;4238227;83;28505;-86
2021/11/14 22:11:04;;;;;;;62.08;27.58;;;;;;;5.74;100.00;100134.60;4218464;84;28525;-87
2021/11/14 22:17:06;;;;;;;60.75;26.23;;;;;;;5.71;100.00;100137.92;4211442;84;28545;-91
2021/11/14 22:23:07;;;;;;;61.75;26.75;;;;;;;5.53;100.00;100136.81;4213144;83;28444;-89
2021/11/14 22:29:08;;;;;;;61.13;27.35;;;;;;;5.68;100.00;100148.13;4209651;83;28473;-89
2021/11/14 22:35:11;;;;;;;60.63;27.62;;;;;;;5.64;100.00;100146.79;4231979;83;28461;-87
2021/11/14 22:41:12;;;;;;;55.35;25.43;;;;;;;5.61;100.00;100150.62;4211788;83;28528;-90
2021/11/14 22:47:16;;;;;;;61.45;26.90;;;;;;;5.64;100.00;100147.63;4205946;82;28485;-88
2021/11/14 22:53:18;;;;;;;65.42;27.15;;;;;;;5.65;100.00;100153.30;4203595;83;28485;-89
2021/11/14 22:59:20;;;;;;;65.83;29.00;;;;;;;5.67;100.00;100157.11;4177887;84;28538;-87
2021/11/14 23:05:22;;;;;;;62.53;26.65;;;;;;;5.56;100.00;100157.80;4212799;83;28540;-88
2021/11/14 23:11:25;;;;;;;67.55;26.77;;;;;;;5.49;100.00;100154.17;4237256;84;28464;-88
2021/11/14 23:17:26;;;;;;;54.67;23.83;;;;;;;5.42;100.00;100154.03;4244466;84;28496;-87
2021/11/14 23:23:31;;;;;;;60.83;25.65;;;;;;;5.37;100.00;100155.02;4244814;84;28494;-88
2021/11/14 23:29:33;;;;;;;61.88;26.73;;;;;;;5.37;100.00;100153.69;4245232;84;28524;-88
2021/11/14 23:35:35;;;;;;;56.68;24.23;;;;;;;5.48;100.00;100153.00;4246024;84;28462;-88
2021/11/14 23:41:57;;;;;;;53.08;22.27;;;;;;;5.38;100.00;100158.53;4234356;83;28482;-88
2021/11/14 23:47:45;;;;;;;51.42;23.32;;;;;;;5.26;100.00;100167.38;4224955;83;28482;-89
2021/11/14 23:53:47;;;;;;;53.40;23.60;;;;;;;5.21;100.00;100171.88;4225412;84;28486;-88
2021/11/14 23:59:49;;;;;;;56.37;23.55;;;;;;;5.22;100.00;100176.72;4262682;82;28565;-90
